createdAt,value
2022-11-06T00:01:58.036Z,4.84
2022-11-06T00:07:01.398Z,4.86
2022-11-06T00:12:04.598Z,4.86
2022-11-06T00:17:07.910Z,4.82
2022-11-06T00:22:11.322Z,4.76
2022-11-06T00:27:14.530Z,4.72
2022-11-06T00:32:17.942Z,4.69
2022-11-06T00:37:21.050Z,4.65
2022-11-06T00:42:24.330Z,4.61
2022-11-06T00:47:28.385Z,4.56
2022-11-06T00:52:31.594Z,4.50
2022-11-06T00:57:35.210Z,4.47
2022-11-06T01:02:38.700Z,4.43
2022-11-06T01:07:42.138Z,4.37
2022-11-06T01:12:45.552Z,4.34
2022-11-06T01:17:48.665Z,4.32
2022-11-06T01:22:51.967Z,4.34
2022-11-06T01:27:55.177Z,4.37
2022-11-06T01:32:58.485Z,4.43
2022-11-06T01:38:01.699Z,4.49
2022-11-06T01:43:05.312Z,4.54
2022-11-06T01:48:09.336Z,4.61
2022-11-06T01:53:13.879Z,4.70
2022-11-06T01:58:20.131Z,4.78
2022-11-06T02:03:23.365Z,4.82
2022-11-06T02:08:26.571Z,4.85
2022-11-06T02:13:51.801Z,4.88
2022-11-06T02:19:19.889Z,4.87
2022-11-06T02:24:38.556Z,4.83
2022-11-06T02:29:52.315Z,4.75
2022-11-06T02:34:58.798Z,4.65
2022-11-06T02:40:06.510Z,4.53
2022-11-06T02:45:13.017Z,4.41
2022-11-06T02:50:25.292Z,4.28
2022-11-06T02:55:34.665Z,4.15
2022-11-06T03:00:42.586Z,4.04
2022-11-06T03:05:45.794Z,3.91
2022-11-06T03:11:21.158Z,3.79
2022-11-06T03:16:45.971Z,3.66
2022-11-06T03:22:02.797Z,3.56
2022-11-06T03:27:15.939Z,3.48
2022-11-06T03:32:27.849Z,3.40
2022-11-06T03:37:36.805Z,3.31
2022-11-06T03:42:43.379Z,3.26
2022-11-06T03:47:53.619Z,3.23
2022-11-06T03:53:06.694Z,3.22
2022-11-06T03:58:16.910Z,3.20
2022-11-06T04:03:49.770Z,3.15
2022-11-06T04:09:16.940Z,3.08
2022-11-06T04:14:23.626Z,3.02
2022-11-06T04:19:26.732Z,2.97
2022-11-06T04:25:07.215Z,2.92
2022-11-06T04:30:14.070Z,2.85
2022-11-06T04:35:36.055Z,2.76
2022-11-06T04:41:17.357Z,2.67
2022-11-06T04:46:26.485Z,2.56
2022-11-06T04:51:35.522Z,2.46
2022-11-06T04:56:45.569Z,2.33
2022-11-06T05:01:49.489Z,2.24
2022-11-06T05:06:53.571Z,2.20
2022-11-06T05:11:57.256Z,2.28
2022-11-06T05:17:00.599Z,2.38
2022-11-06T05:22:23.057Z,2.42
2022-11-06T05:27:26.264Z,2.43
2022-11-06T05:32:31.284Z,2.47
2022-11-06T05:37:34.632Z,2.57
2022-11-06T05:42:39.230Z,2.76
2022-11-06T05:47:42.478Z,3.04
2022-11-06T05:52:45.790Z,3.31
2022-11-06T05:57:48.895Z,3.54
2022-11-06T06:02:52.316Z,3.73
2022-11-06T06:07:56.023Z,3.88
2022-11-06T06:12:59.846Z,3.99
2022-11-06T06:18:03.056Z,4.04
2022-11-06T06:23:09.437Z,4.09
2022-11-06T06:28:13.066Z,4.17
2022-11-06T06:33:16.573Z,4.24
2022-11-06T06:38:19.879Z,4.29
2022-11-06T06:43:23.094Z,4.36
2022-11-06T06:48:26.296Z,4.45
2022-11-06T06:53:30.025Z,4.51
2022-11-06T06:58:34.067Z,4.60
2022-11-06T07:03:38.894Z,4.65
2022-11-06T07:08:42.096Z,4.70
2022-11-06T07:13:45.310Z,4.77
2022-11-06T07:18:48.516Z,4.80
2022-11-06T07:23:51.823Z,4.84
2022-11-06T07:28:54.928Z,4.89
2022-11-06T07:33:58.138Z,4.95
2022-11-06T07:39:03.238Z,5.10
2022-11-06T07:44:06.914Z,5.26
2022-11-06T07:49:10.420Z,5.36
2022-11-06T07:54:14.041Z,5.42
2022-11-06T07:59:17.143Z,5.53
2022-11-06T08:04:20.357Z,5.69
2022-11-06T08:09:25.379Z,5.83
2022-11-06T08:14:28.509Z,5.96
2022-11-06T08:19:31.715Z,6.06
2022-11-06T08:24:35.742Z,6.14
2022-11-06T08:29:41.592Z,6.27
2022-11-06T08:34:45.229Z,6.34
2022-11-06T08:39:49.052Z,6.39
2022-11-06T08:44:52.056Z,6.47
2022-11-06T08:49:56.393Z,6.54
2022-11-06T08:55:00.115Z,6.59
2022-11-06T09:00:07.106Z,6.62
2022-11-06T09:05:10.931Z,6.72
2022-11-06T09:10:14.972Z,6.77
2022-11-06T09:15:20.381Z,6.86
2022-11-06T09:20:26.498Z,6.96
2022-11-06T09:25:30.741Z,7.04
2022-11-06T09:30:34.443Z,7.14
2022-11-06T09:35:37.757Z,7.22
2022-11-06T09:40:55.710Z,7.27
2022-11-06T09:46:17.859Z,7.47
2022-11-06T09:51:38.791Z,7.78
2022-11-06T09:56:46.651Z,8.02
2022-11-06T10:01:57.440Z,8.32
2022-11-06T10:07:00.798Z,8.47
2022-11-06T10:12:18.958Z,8.63
2022-11-06T10:17:45.102Z,8.73
2022-11-06T10:23:05.622Z,8.86
2022-11-06T10:28:29.424Z,9.12
2022-11-06T10:33:32.820Z,9.50
2022-11-06T10:38:39.318Z,10.00
2022-11-06T10:43:57.758Z,10.11
2022-11-06T10:49:30.825Z,10.27
2022-11-06T10:54:46.171Z,10.33
2022-11-06T10:59:50.970Z,10.51
2022-11-06T11:04:58.001Z,10.64
2022-11-06T11:10:24.279Z,10.56
2022-11-06T11:15:31.663Z,10.31
2022-11-06T11:20:37.726Z,10.06
2022-11-06T11:25:44.676Z,9.86
2022-11-06T11:30:56.552Z,9.69
2022-11-06T11:36:00.163Z,9.59
2022-11-06T11:41:27.048Z,9.53
2022-11-06T11:46:32.302Z,9.50
2022-11-06T11:51:45.430Z,9.49
2022-11-06T11:57:04.799Z,9.50
2022-11-06T12:02:26.825Z,9.52
2022-11-06T12:07:35.704Z,9.56
2022-11-06T12:12:39.007Z,9.64
2022-11-06T12:17:43.243Z,9.72
2022-11-06T12:22:49.611Z,9.80
2022-11-06T12:27:57.202Z,9.85
2022-11-06T12:33:15.083Z,9.87
2022-11-06T12:38:24.704Z,9.89
2022-11-06T12:43:43.002Z,9.90
2022-11-06T12:49:25.236Z,9.90
2022-11-06T12:55:01.543Z,9.90
2022-11-06T13:00:12.581Z,9.91
2022-11-06T13:05:19.086Z,9.92
2022-11-06T13:11:00.085Z,9.93
2022-11-06T13:16:31.761Z,9.94
2022-11-06T13:21:53.495Z,9.90
2022-11-06T13:27:27.836Z,9.84
2022-11-06T13:32:34.918Z,9.80
2022-11-06T13:37:46.849Z,9.77
2022-11-06T13:43:03.160Z,9.71
2022-11-06T13:48:27.669Z,9.65
2022-11-06T13:54:01.323Z,9.58
2022-11-06T13:59:04.222Z,9.52
2022-11-06T14:04:53.255Z,9.43
2022-11-06T14:09:57.609Z,9.30
2022-11-06T14:15:36.048Z,9.19
2022-11-06T14:20:40.724Z,9.05
2022-11-06T14:25:46.461Z,8.93
2022-11-06T14:31:11.434Z,8.83
2022-11-06T14:36:14.542Z,8.71
2022-11-06T14:41:35.925Z,8.59
2022-11-06T14:46:40.205Z,8.45
2022-11-06T14:51:43.765Z,8.32
2022-11-06T14:56:54.473Z,8.17
2022-11-06T15:02:10.478Z,8.00
2022-11-06T15:08:04.373Z,7.83
2022-11-06T15:13:17.719Z,7.66
2022-11-06T15:18:24.266Z,7.51
2022-11-06T15:23:39.568Z,7.36
2022-11-06T15:28:49.536Z,7.22
2022-11-06T15:34:14.048Z,7.07
2022-11-06T15:39:32.464Z,6.92
2022-11-06T15:44:40.690Z,6.80
2022-11-06T15:49:43.955Z,6.70
2022-11-06T15:54:48.889Z,6.63
2022-11-06T16:00:11.983Z,6.58
2022-11-06T16:05:18.824Z,6.53
2022-11-06T16:10:25.026Z,6.50
2022-11-06T16:16:01.536Z,6.49
2022-11-06T16:21:23.175Z,6.44
2022-11-06T16:26:36.862Z,6.40
2022-11-06T16:31:40.749Z,6.34
2022-11-06T16:36:58.915Z,6.28
2022-11-06T16:42:06.312Z,6.23
2022-11-06T16:47:18.737Z,6.19
2022-11-06T16:52:27.891Z,6.15
2022-11-06T16:57:47.990Z,6.09
2022-11-06T17:02:54.562Z,5.99
2022-11-06T17:08:22.061Z,5.84
2022-11-06T17:13:28.720Z,5.66
2022-11-06T17:18:32.054Z,5.43
2022-11-06T17:23:35.770Z,5.19
2022-11-06T17:28:39.286Z,4.97
2022-11-06T17:33:43.679Z,4.77
2022-11-06T17:38:48.632Z,4.58
2022-11-06T17:43:52.086Z,4.48
2022-11-06T17:48:56.813Z,4.43
2022-11-06T17:54:00.653Z,4.36
2022-11-06T17:59:04.482Z,4.24
2022-11-06T18:04:08.610Z,4.10
2022-11-06T18:09:12.225Z,3.94
2022-11-06T18:14:15.635Z,3.83
2022-11-06T18:19:22.398Z,3.75
2022-11-06T18:24:25.943Z,3.72
2022-11-06T18:29:29.150Z,3.68
2022-11-06T18:34:32.217Z,3.67
2022-11-06T18:39:35.980Z,3.71
2022-11-06T18:44:41.639Z,3.73
2022-11-06T18:49:45.362Z,3.73
2022-11-06T18:54:48.883Z,3.73
2022-11-06T18:59:52.702Z,3.70
2022-11-06T19:04:56.586Z,3.63
2022-11-06T19:10:00.985Z,3.59
2022-11-06T19:15:09.596Z,3.56
2022-11-06T19:20:15.193Z,3.54
2022-11-06T19:25:21.332Z,3.57
2022-11-06T19:30:24.853Z,3.58
2022-11-06T19:35:28.573Z,3.54
2022-11-06T19:40:31.781Z,3.39
2022-11-06T19:45:34.935Z,3.27
2022-11-06T19:50:59.318Z,3.17
2022-11-06T19:56:08.946Z,3.07
2022-11-06T20:01:13.699Z,2.96
2022-11-06T20:06:17.636Z,2.91
2022-11-06T20:11:24.349Z,2.92
2022-11-06T20:16:28.026Z,2.92
2022-11-06T20:21:32.465Z,2.93
2022-11-06T20:26:36.379Z,2.97
2022-11-06T20:31:39.700Z,3.06
2022-11-06T20:36:45.011Z,3.24
2022-11-06T20:41:49.390Z,3.36
2022-11-06T20:46:54.441Z,3.48
2022-11-06T20:52:13.622Z,3.59
2022-11-06T20:57:18.267Z,3.65
2022-11-06T21:02:22.857Z,3.69
2022-11-06T21:07:26.434Z,3.73
2022-11-06T21:12:30.448Z,3.75
2022-11-06T21:17:34.068Z,3.68
2022-11-06T21:22:38.491Z,3.53
2022-11-06T21:27:41.610Z,3.31
2022-11-06T21:32:44.918Z,3.13
2022-11-06T21:37:48.534Z,3.05
2022-11-06T21:42:52.153Z,3.15
2022-11-06T21:47:55.363Z,3.39
2022-11-06T21:53:17.209Z,3.57
2022-11-06T21:58:20.515Z,3.72
2022-11-06T22:03:23.724Z,3.83
2022-11-06T22:08:30.451Z,3.92
2022-11-06T22:13:34.032Z,3.99
2022-11-06T22:18:37.648Z,4.01
2022-11-06T22:23:42.190Z,4.03
2022-11-06T22:28:46.113Z,4.08
2022-11-06T22:33:53.623Z,4.10
2022-11-06T22:39:00.253Z,4.09
2022-11-06T22:44:05.433Z,4.06
2022-11-06T22:49:09.610Z,4.02
2022-11-06T22:54:13.826Z,4.00
2022-11-06T22:59:17.239Z,3.98
2022-11-06T23:04:20.446Z,3.94
2022-11-06T23:09:24.622Z,3.93
2022-11-06T23:14:28.910Z,3.91
2022-11-06T23:19:32.733Z,3.91
2022-11-06T23:24:35.837Z,3.90
2022-11-06T23:29:39.455Z,3.88
2022-11-06T23:34:43.693Z,3.82
2022-11-06T23:39:49.399Z,3.73
2022-11-06T23:45:12.325Z,3.63
2022-11-06T23:50:16.638Z,3.54
2022-11-06T23:55:19.867Z,3.46
